This is the latest recevied weather packets stored in our database for station/object DC4XK-10. If no packets are shown the sender has not sent any weather packets the latest 10 day(s).
| Time | Temp. | Humidity | Pressure | Rain* | Wind** | Luminosity | Snow |
|---|---|---|---|---|---|---|---|
| 1777651730 | 21.11° C | 50% | 1023.7 hPa | 0 mm | 0 m/s | - | - |
| 1777649931 | 22.78° C | 42% | 1024.1 hPa | 0 mm | 0.45 m/s, 106° | - | - |
| 1777649331 | 21.67° C | 44% | 1024.3 hPa | 0 mm | 0 m/s | - | - |
| 1777648730 | 21.67° C | 45% | 1024.3 hPa | 0 mm | 0.45 m/s, 48° | - | - |
| 1777648131 | 23.33° C | 42% | 1024.2 hPa | 0 mm | 0 m/s | - | - |
| 1777647531 | 22.22° C | 44% | 1024.3 hPa | 0 mm | 0.45 m/s, 62° | - | - |
| 1777646331 | 24.44° C | 39% | 1024.7 hPa | 0 mm | 0 m/s | - | - |
| 1777645730 | 25° C | 34% | 1024.9 hPa | 0 mm | 0 m/s | - | - |
| 1777645131 | 24.44° C | 35% | 1024.6 hPa | 0 mm | 0 m/s | - | - |
| 1777644531 | 23.33° C | 40% | 1024.8 hPa | 0 mm | 0.45 m/s, 109° | - | - |
| 1777643930 | 23.89° C | 39% | 1025.1 hPa | 0 mm | 0.45 m/s, 59° | - | - |
| 1777642732 | 23.89° C | 35% | 1025.1 hPa | 0 mm | 0 m/s | - | - |
| 1777642131 | 24.44° C | 33% | 1025.5 hPa | 0 mm | 0 m/s | - | - |
| 1777641530 | 23.33° C | 35% | 1025.4 hPa | 0 mm | 0.89 m/s, 176° | - | - |
| 1777638530 | 24.44° C | 34% | 1026.3 hPa | 0 mm | 0 m/s | - | - |
| 1777637931 | 22.78° C | 36% | 1026.1 hPa | 0 mm | 0 m/s | - | - |
| 1777637332 | 23.33° C | 36% | 1026.1 hPa | 0 mm | 0 m/s | - | - |
| 1777636731 | 24.44° C | 34% | 1026.4 hPa | 0 mm | 0.45 m/s, 108° | - | - |
| 1777635531 | 22.78° C | 36% | 1026.5 hPa | 0 mm | 0.89 m/s, 138° | - | - |
| 1777634930 | 22.22° C | 37% | 1026.7 hPa | 0 mm | 1.34 m/s, 185° | - | - |
| 1777634330 | 22.78° C | 37% | 1026.8 hPa | 0 mm | 0 m/s | - | - |
| 1777633731 | 22.78° C | 36% | 1026.9 hPa | 0 mm | 1.34 m/s, 215° | - | - |
| 1777633130 | 22.78° C | 37% | 1026.9 hPa | 0 mm | 0.89 m/s, 225° | - | - |
| 1777632531 | 22.22° C | 39% | 1027.3 hPa | 0 mm | 0 m/s | - | - |
| 1777631930 | 21.11° C | 40% | 1027.1 hPa | 0 mm | 0 m/s | - | - |
* Rain latest hour (hover to see other rain measurements)
** Current wind speed in m/s (hover to see current wind gust speed)